Time;durP1;ratioP1;P1;durP2;ratioP2;P2;SDS_P1;SDS_P2;PMS_P1;PMS_P2;Temp;Humidity;BMP_temperature;BMP_pressure;BME280_temperature;BME280_humidity;BME280_pressure;Samples;Min_cycle;Max_cycle;Signal;HPM_P1;HPM_P2
2023/07/16 00:00:10;;;;;;;6.38;2.35;;;;;;;17.76;100.00;100529.19;4994399;28;20185;-47
2023/07/16 00:02:37;;;;;;;5.25;2.33;;;;;;;17.77;100.00;100537.19;4987839;28;20549;-49
2023/07/16 00:05:03;;;;;;;5.07;2.15;;;;;;;17.72;100.00;100555.63;4991732;28;20240;-48
2023/07/16 00:07:29;;;;;;;4.32;1.90;;;;;;;17.75;100.00;100546.41;4989243;28;20308;-47
2023/07/16 00:09:54;;;;;;;5.55;2.13;;;;;;;17.56;100.00;100546.84;4997009;28;20739;-48
2023/07/16 00:12:20;;;;;;;4.25;2.03;;;;;;;17.58;100.00;100550.31;4995648;28;20256;-47
2023/07/16 00:14:45;;;;;;;5.80;2.20;;;;;;;17.41;100.00;100549.69;4982087;28;20221;-48
2023/07/16 00:17:11;;;;;;;5.07;2.10;;;;;;;17.34;100.00;100542.13;4990394;28;20173;-46
2023/07/16 00:19:37;;;;;;;5.05;1.80;;;;;;;17.28;100.00;100546.13;4989385;28;20419;-49
2023/07/16 00:22:02;;;;;;;5.60;2.10;;;;;;;17.17;100.00;100552.31;4992214;28;20178;-46
2023/07/16 00:24:28;;;;;;;6.30;2.15;;;;;;;16.99;100.00;100546.34;4991627;28;20177;-48
2023/07/16 00:26:53;;;;;;;3.92;2.00;;;;;;;17.13;100.00;100547.22;4985322;28;20268;-48
2023/07/16 00:29:19;;;;;;;6.75;2.30;;;;;;;17.23;100.00;100578.97;4986945;28;20561;-47
2023/07/16 00:31:44;;;;;;;5.50;2.03;;;;;;;17.14;100.00;100587.69;4984096;28;20180;-47
2023/07/16 00:34:10;;;;;;;5.65;1.90;;;;;;;17.03;100.00;100582.16;4991732;28;20538;-48
2023/07/16 00:36:35;;;;;;;3.72;1.88;;;;;;;17.15;100.00;100575.91;4986426;28;20213;-47
2023/07/16 00:39:01;;;;;;;5.78;2.13;;;;;;;17.12;100.00;100575.25;4986556;28;20945;-48
2023/07/16 00:41:26;;;;;;;5.90;2.10;;;;;;;17.07;100.00;100565.59;4990239;28;20189;-47
2023/07/16 00:43:54;;;;;;;6.10;1.98;;;;;;;17.04;100.00;100544.19;4991455;28;20166;-47
2023/07/16 00:46:19;;;;;;;4.30;1.75;;;;;;;17.04;100.00;100546.88;5004369;28;20193;-47
2023/07/16 00:48:45;;;;;;;5.78;2.22;;;;;;;17.16;100.00;100557.81;4996234;28;20243;-50
2023/07/16 00:51:11;;;;;;;5.03;2.13;;;;;;;17.16;100.00;100547.00;5006775;28;20219;-47
2023/07/16 00:53:37;;;;;;;6.60;2.47;;;;;;;17.04;100.00;100527.06;4987299;28;20683;-47
2023/07/16 00:56:03;;;;;;;5.28;2.08;;;;;;;17.18;100.00;100528.81;4994213;28;20209;-48
2023/07/16 00:58:28;;;;;;;5.15;2.40;;;;;;;17.08;100.00;100534.88;4987960;28;20275;-46
2023/07/16 01:00:54;;;;;;;4.38;2.25;;;;;;;16.99;100.00;100532.81;4989880;28;20173;-46
2023/07/16 01:03:26;;;;;;;4.00;2.05;;;;;;;17.12;100.00;100534.66;5008174;28;20346;-47
2023/07/16 01:06:05;;;;;;;5.30;2.08;;;;;;;17.16;100.00;100539.72;4988290;28;20224;-47
2023/07/16 01:08:54;;;;;;;7.40;2.15;;;;;;;17.12;100.00;100534.66;5009254;28;20186;-48
2023/07/16 01:11:20;;;;;;;4.15;2.15;;;;;;;17.00;100.00;100530.97;4988672;28;20195;-49
2023/07/16 01:13:46;;;;;;;4.53;2.08;;;;;;;17.12;100.00;100553.59;4995872;28;20679;-48
2023/07/16 01:16:21;;;;;;;4.25;2.25;;;;;;;17.11;100.00;100573.53;4989450;28;20216;-48
2023/07/16 01:18:47;;;;;;;4.95;2.25;;;;;;;17.08;100.00;100601.69;4989237;28;20191;-48
2023/07/16 01:21:13;;;;;;;5.85;2.83;;;;;;;16.85;100.00;100592.44;4994024;28;20185;-47
2023/07/16 01:24:00;;;;;;;7.38;2.45;;;;;;;16.88;100.00;100584.13;4991796;28;20179;-47
2023/07/16 01:26:39;;;;;;;5.68;2.15;;;;;;;17.06;100.00;100569.31;4999036;28;20213;-48
2023/07/16 01:29:20;;;;;;;5.53;2.40;;;;;;;16.86;100.00;100549.03;4975394;28;20185;-48
2023/07/16 01:31:48;;;;;;;4.90;2.33;;;;;;;16.89;100.00;100551.53;4988347;28;20256;-48
2023/07/16 01:34:14;;;;;;;6.80;2.63;;;;;;;16.81;100.00;100559.28;4985909;28;20622;-49
2023/07/16 01:36:41;;;;;;;6.43;2.65;;;;;;;16.86;100.00;100565.28;4985267;28;20201;-48
2023/07/16 01:39:06;;;;;;;6.57;2.78;;;;;;;16.95;100.00;100565.63;4988990;28;20205;-49
2023/07/16 01:41:32;;;;;;;5.53;2.45;;;;;;;16.84;100.00;100578.03;4990304;28;20561;-49
2023/07/16 01:43:57;;;;;;;6.57;2.85;;;;;;;16.94;100.00;100580.97;4983844;28;20656;-48
2023/07/16 01:46:23;;;;;;;4.80;2.30;;;;;;;16.78;100.00;100583.84;4989686;28;20706;-50
2023/07/16 01:48:49;;;;;;;9.07;2.72;;;;;;;16.89;100.00;100608.34;4991371;28;20256;-49
2023/07/16 01:51:14;;;;;;;4.25;2.00;;;;;;;16.85;100.00;100595.13;4994843;28;20184;-47
2023/07/16 01:53:40;;;;;;;3.15;2.20;;;;;;;16.81;100.00;100585.50;5002715;28;20647;-49
2023/07/16 01:56:06;;;;;;;5.93;2.17;;;;;;;16.73;100.00;100577.03;4988374;28;20284;-49
2023/07/16 01:58:32;;;;;;;3.80;2.10;;;;;;;16.79;100.00;100585.59;4991143;28;20278;-49
2023/07/16 02:00:57;;;;;;;2.97;2.10;;;;;;;16.80;100.00;100598.16;4990756;28;20200;-49
2023/07/16 02:03:23;;;;;;;5.68;2.28;;;;;;;16.71;100.00;100598.75;4990630;28;20196;-49
2023/07/16 02:05:48;;;;;;;4.85;2.40;;;;;;;16.86;100.00;100613.13;4984692;28;20205;-50
2023/07/16 02:08:14;;;;;;;4.88;2.15;;;;;;;16.72;100.00;100602.31;5012273;28;20287;-49
2023/07/16 02:10:39;;;;;;;2.80;2.08;;;;;;;16.68;100.00;100613.38;4986014;28;20185;-48
2023/07/16 02:13:05;;;;;;;7.45;2.33;;;;;;;16.65;100.00;100621.66;4985103;28;20208;-49
2023/07/16 02:15:30;;;;;;;5.82;2.15;;;;;;;16.61;100.00;100606.59;4998341;28;20225;-49
2023/07/16 02:17:56;;;;;;;2.97;1.85;;;;;;;16.69;100.00;100596.16;4988408;28;20224;-50
2023/07/16 02:20:22;;;;;;;2.42;2.00;;;;;;;16.66;100.00;100609.00;4983220;28;20174;-50
2023/07/16 02:22:47;;;;;;;6.65;2.22;;;;;;;16.64;100.00;100609.13;4990145;28;20611;-50
2023/07/16 02:25:13;;;;;;;6.28;2.28;;;;;;;16.64;100.00;100594.75;5005432;28;20400;-48
2023/07/16 02:27:38;;;;;;;4.43;2.25;;;;;;;16.63;100.00;100606.50;4996860;28;20292;-49
2023/07/16 02:30:05;;;;;;;5.60;2.15;;;;;;;16.65;100.00;100600.03;4986373;28;20200;-50
2023/07/16 02:32:31;;;;;;;4.78;2.17;;;;;;;16.55;100.00;100601.63;4988594;28;20547;-49
2023/07/16 02:35:00;;;;;;;5.07;2.20;;;;;;;16.52;100.00;100593.69;4991636;28;20271;-48
2023/07/16 02:37:27;;;;;;;6.82;2.40;;;;;;;16.64;100.00;100605.56;4982045;28;20200;-51
2023/07/16 02:39:52;;;;;;;4.45;2.17;;;;;;;16.61;100.00;100611.16;4985291;28;20633;-49
2023/07/16 02:42:18;;;;;;;5.10;2.20;;;;;;;16.58;100.00;100619.50;4977392;28;20205;-51
2023/07/16 02:44:44;;;;;;;4.10;2.33;;;;;;;16.64;100.00;100624.50;4980346;28;20185;-49
2023/07/16 02:47:11;;;;;;;4.93;2.05;;;;;;;16.66;100.00;100639.66;4990924;28;20316;-49
2023/07/16 02:49:37;;;;;;;6.60;2.38;;;;;;;16.66;100.00;100646.88;4986706;28;20264;-51
2023/07/16 02:52:04;;;;;;;4.97;2.13;;;;;;;16.76;100.00;100630.91;4989322;28;20247;-49
2023/07/16 02:54:29;;;;;;;5.25;2.20;;;;;;;16.67;100.00;100617.03;4990009;28;20688;-48
2023/07/16 02:56:55;;;;;;;4.63;2.15;;;;;;;16.63;100.00;100595.69;4986895;28;20189;-48
2023/07/16 02:59:20;;;;;;;2.72;2.20;;;;;;;16.55;100.00;100585.41;4986513;28;20193;-50
2023/07/16 03:01:46;;;;;;;2.55;1.90;;;;;;;16.53;100.00;100581.03;4981456;28;20558;-48
2023/07/16 03:04:11;;;;;;;5.20;2.60;;;;;;;16.53;100.00;100586.44;4985448;28;20181;-50
2023/07/16 03:06:37;;;;;;;4.43;2.35;;;;;;;16.53;100.00;100581.03;4983330;28;20197;-51
2023/07/16 03:09:03;;;;;;;5.20;1.85;;;;;;;16.51;100.00;100572.16;4991171;28;20245;-49
2023/07/16 03:11:29;;;;;;;6.20;2.20;;;;;;;16.42;100.00;100579.06;4994172;28;20180;-48
2023/07/16 03:13:55;;;;;;;5.88;2.00;;;;;;;16.39;100.00;100580.13;4994550;28;20647;-50
2023/07/16 03:16:20;;;;;;;4.75;2.20;;;;;;;16.47;100.00;100572.38;4998429;28;20219;-48
2023/07/16 03:18:46;;;;;;;7.38;2.22;;;;;;;16.43;100.00;100581.66;5000010;28;20232;-48
2023/07/16 03:21:12;;;;;;;7.55;2.40;;;;;;;16.44;100.00;100593.34;4995217;28;20245;-50
2023/07/16 03:23:38;;;;;;;4.15;2.25;;;;;;;16.49;100.00;100585.81;4985147;28;20185;-49
2023/07/16 03:26:03;;;;;;;6.63;2.55;;;;;;;16.54;100.00;100591.75;5004719;28;20560;-48
2023/07/16 03:28:29;;;;;;;4.47;2.10;;;;;;;16.66;100.00;100582.84;4992828;28;20636;-50
2023/07/16 03:30:55;;;;;;;3.03;1.73;;;;;;;16.58;100.00;100605.97;4993290;28;20221;-49
2023/07/16 03:33:21;;;;;;;3.92;1.95;;;;;;;16.54;100.00;100609.84;4995424;28;20205;-48
2023/07/16 03:35:48;;;;;;;6.38;2.53;;;;;;;16.45;100.00;100614.88;4988634;28;20271;-47
2023/07/16 03:38:14;;;;;;;5.70;2.42;;;;;;;16.43;100.00;100624.94;4998022;28;20181;-47
2023/07/16 03:40:43;;;;;;;5.03;2.17;;;;;;;16.46;100.00;100613.94;4991770;28;20177;-48
2023/07/16 03:43:08;;;;;;;5.68;2.70;;;;;;;16.43;100.00;100608.72;4990595;28;20173;-47
2023/07/16 03:45:34;;;;;;;8.05;2.38;;;;;;;16.38;100.00;100597.34;4986924;28;20248;-49
2023/07/16 03:47:59;;;;;;;5.95;2.28;;;;;;;16.50;100.00;100605.59;4994153;28;20376;-48
2023/07/16 03:50:25;;;;;;;4.90;2.10;;;;;;;16.43;100.00;100616.81;4991667;28;20182;-48
2023/07/16 03:52:50;;;;;;;4.05;2.47;;;;;;;16.43;100.00;100613.25;4984231;28;20190;-48
2023/07/16 03:55:16;;;;;;;5.53;2.50;;;;;;;16.39;100.00;100618.00;4992443;28;20212;-48
2023/07/16 03:57:42;;;;;;;6.15;2.17;;;;;;;16.34;100.00;100617.44;4982733;28;20212;-49
2023/07/16 04:00:09;;;;;;;5.97;2.28;;;;;;;16.26;100.00;100612.50;4991466;28;20628;-48
2023/07/16 04:02:41;;;;;;;5.70;2.40;;;;;;;16.27;100.00;100624.22;4992967;28;20213;-48
2023/07/16 04:05:10;;;;;;;5.53;2.30;;;;;;;16.32;100.00;100619.38;5008623;28;20239;-49
2023/07/16 04:07:36;;;;;;;5.20;2.53;;;;;;;16.32;100.00;100616.66;4991986;28;20221;-48
2023/07/16 04:10:02;;;;;;;7.90;2.38;;;;;;;16.27;100.00;100616.97;4991611;28;20189;-49
2023/07/16 04:12:27;;;;;;;4.22;2.13;;;;;;;16.26;100.00;100611.66;4990123;28;20246;-50
2023/07/16 04:14:57;;;;;;;6.82;2.28;;;;;;;16.16;100.00;100602.41;4991432;28;20220;-49
2023/07/16 04:17:23;;;;;;;13.43;2.67;;;;;;;16.16;100.00;100611.41;4988087;28;20194;-48
2023/07/16 04:19:48;;;;;;;7.07;2.42;;;;;;;16.24;100.00;100605.47;4989097;28;20251;-47
2023/07/16 04:22:13;;;;;;;5.40;2.20;;;;;;;16.23;100.00;100610.03;4986746;28;20236;-49
2023/07/16 04:24:39;;;;;;;7.07;2.42;;;;;;;16.20;100.00;100621.06;4992149;28;20186;-47
2023/07/16 04:27:05;;;;;;;6.82;2.97;;;;;;;16.23;100.00;100623.53;4993754;28;20184;-49
2023/07/16 04:29:30;;;;;;;4.13;2.47;;;;;;;16.28;100.00;100628.63;4997780;28;20223;-49
2023/07/16 04:31:56;;;;;;;3.40;2.53;;;;;;;16.33;100.00;100629.19;4993433;28;20682;-48
2023/07/16 04:34:21;;;;;;;5.20;2.63;;;;;;;16.28;100.00;100628.63;4991866;28;20678;-47
2023/07/16 04:36:47;;;;;;;7.13;2.53;;;;;;;16.26;100.00;100628.72;4993764;28;20213;-50
2023/07/16 04:39:13;;;;;;;4.50;2.20;;;;;;;16.38;100.00;100629.78;4986550;28;20185;-48
2023/07/16 04:41:38;;;;;;;7.43;2.80;;;;;;;16.39;100.00;100634.22;4989072;28;20238;-49
2023/07/16 04:44:05;;;;;;;6.85;2.50;;;;;;;16.36;100.00;100631.72;4991725;28;20276;-48
2023/07/16 04:46:30;;;;;;;6.32;2.67;;;;;;;16.39;100.00;100639.63;4990390;28;20208;-47
2023/07/16 04:48:56;;;;;;;5.63;2.60;;;;;;;16.47;100.00;100642.69;4998004;28;20185;-48
2023/07/16 04:51:22;;;;;;;6.75;2.75;;;;;;;16.48;100.00;100644.41;4996747;28;20240;-49
2023/07/16 04:53:48;;;;;;;12.25;2.90;;;;;;;16.54;100.00;100632.34;4992990;28;20598;-48
2023/07/16 04:56:14;;;;;;;7.25;2.90;;;;;;;16.74;100.00;100632.84;4996935;28;20196;-46
2023/07/16 04:58:40;;;;;;;5.47;2.80;;;;;;;16.80;100.00;100652.28;5001441;28;20177;-43
2023/07/16 05:01:08;;;;;;;6.47;2.30;;;;;;;16.85;100.00;100650.13;4990991;28;20200;-47
2023/07/16 05:03:33;;;;;;;6.80;2.30;;;;;;;17.07;100.00;100652.22;5018446;22;20228;-51
2023/07/16 05:05:59;;;;;;;7.57;2.72;;;;;;;17.12;100.00;100641.13;5011429;28;20582;-52
2023/07/16 05:08:24;;;;;;;5.20;2.20;;;;;;;17.26;100.00;100649.13;5014354;28;20192;-52
2023/07/16 05:10:50;;;;;;;8.57;2.70;;;;;;;17.33;100.00;100646.88;5013838;28;20211;-51
2023/07/16 05:13:16;;;;;;;8.25;2.88;;;;;;;17.29;100.00;100648.03;5014351;28;20678;-51
2023/07/16 05:15:44;;;;;;;6.07;2.58;;;;;;;17.50;100.00;100642.97;5011426;28;20705;-52
2023/07/16 05:18:09;;;;;;;5.30;2.30;;;;;;;17.58;100.00;100639.72;5010858;28;20208;-51
2023/07/16 05:20:35;;;;;;;8.25;3.08;;;;;;;17.55;100.00;100648.06;5015224;28;20193;-52
2023/07/16 05:23:00;;;;;;;5.57;2.40;;;;;;;17.67;100.00;100655.34;5027178;28;20339;-51
2023/07/16 05:25:26;;;;;;;5.07;2.40;;;;;;;17.65;100.00;100650.03;5014472;28;20196;-51
2023/07/16 05:27:52;;;;;;;4.70;2.25;;;;;;;17.75;100.00;100650.22;5015150;28;20193;-50
2023/07/16 05:30:17;;;;;;;6.90;2.60;;;;;;;17.75;100.00;100658.38;5011228;28;20577;-52
2023/07/16 05:32:43;;;;;;;6.72;2.53;;;;;;;17.70;100.00;100655.97;5012155;28;20241;-53
2023/07/16 05:35:09;;;;;;;5.75;2.55;;;;;;;17.81;100.00;100665.19;5013568;28;20227;-51
2023/07/16 05:37:34;;;;;;;6.10;2.38;;;;;;;17.91;100.00;100650.06;5015666;28;20196;-52
2023/07/16 05:40:00;;;;;;;9.30;2.60;;;;;;;18.10;100.00;100665.84;5017297;28;20541;-52
2023/07/16 05:42:25;;;;;;;11.18;2.67;;;;;;;18.05;100.00;100663.47;5018747;28;20192;-53
2023/07/16 05:44:51;;;;;;;6.15;2.90;;;;;;;17.94;100.00;100654.38;5011490;28;20633;-51
2023/07/16 05:47:16;;;;;;;4.93;2.83;;;;;;;17.98;100.00;100648.63;5023818;28;20192;-51
2023/07/16 05:49:42;;;;;;;5.05;2.50;;;;;;;18.14;100.00;100650.22;5011875;28;20193;-51
2023/07/16 05:52:09;;;;;;;5.72;2.50;;;;;;;18.17;99.36;100650.88;5013290;28;20650;-52
2023/07/16 05:54:34;;;;;;;5.70;2.90;;;;;;;18.24;98.45;100646.72;5009293;28;20211;-51
2023/07/16 05:57:00;;;;;;;10.60;3.03;;;;;;;18.29;97.41;100646.41;5014628;28;20192;-51
2023/07/16 05:59:26;;;;;;;7.82;2.65;;;;;;;18.29;96.03;100647.25;5013522;28;20235;-52
2023/07/16 06:01:51;;;;;;;7.82;3.03;;;;;;;18.26;95.62;100661.06;5011543;28;20203;-50
2023/07/16 06:04:17;;;;;;;7.15;2.33;;;;;;;18.44;95.96;100652.53;5010535;28;20216;-53
2023/07/16 06:06:43;;;;;;;3.97;2.55;;;;;;;18.57;95.24;100653.34;5014389;28;20215;-54
2023/07/16 06:09:08;;;;;;;6.93;2.80;;;;;;;18.56;94.19;100654.31;5010328;28;20543;-50
2023/07/16 06:11:37;;;;;;;7.15;2.88;;;;;;;18.68;93.69;100647.97;5015866;28;20243;-53
2023/07/16 06:14:03;;;;;;;4.88;2.40;;;;;;;18.76;92.88;100650.13;5012622;28;20215;-49
2023/07/16 06:16:28;;;;;;;5.90;2.70;;;;;;;18.85;92.40;100645.91;5008759;28;20212;-53
2023/07/16 06:18:54;;;;;;;7.28;2.70;;;;;;;18.87;91.65;100646.63;5014946;28;20180;-52
2023/07/16 06:21:19;;;;;;;7.30;2.72;;;;;;;19.13;90.46;100639.19;5009928;28;20195;-51
2023/07/16 06:23:45;;;;;;;7.20;2.88;;;;;;;19.31;88.92;100640.50;5008753;28;20204;-52
2023/07/16 06:26:10;;;;;;;6.50;2.85;;;;;;;19.49;88.08;100640.91;5013493;28;20209;-51
2023/07/16 06:28:36;;;;;;;5.93;2.53;;;;;;;19.43;86.29;100630.50;5012092;28;20223;-53
2023/07/16 06:31:02;;;;;;;5.68;2.88;;;;;;;19.51;86.09;100643.50;5007406;28;20267;-49
2023/07/16 06:33:28;;;;;;;6.93;3.20;;;;;;;19.87;85.24;100642.44;5012866;28;20223;-51
2023/07/16 06:35:54;;;;;;;5.15;2.50;;;;;;;19.98;83.09;100627.13;5016646;28;20212;-51
2023/07/16 06:38:19;;;;;;;6.20;2.58;;;;;;;20.14;81.69;100622.19;5021647;28;20214;-51
2023/07/16 06:40:49;;;;;;;8.13;2.90;;;;;;;19.92;81.11;100634.78;5010910;28;20187;-53
2023/07/16 06:43:16;;;;;;;6.95;3.13;;;;;;;20.19;79.45;100633.53;5011665;28;20177;-50
2023/07/16 06:45:42;;;;;;;8.15;2.92;;;;;;;20.13;78.27;100615.84;5017562;28;20703;-51
2023/07/16 06:48:07;;;;;;;6.65;2.80;;;;;;;20.34;77.89;100640.44;5011711;28;20176;-52
2023/07/16 06:50:33;;;;;;;5.03;2.30;;;;;;;20.47;76.36;100623.97;5015049;28;20231;-52
2023/07/16 06:52:58;;;;;;;9.57;2.70;;;;;;;20.60;75.26;100617.50;5014196;28;20176;-50
2023/07/16 06:55:24;;;;;;;6.00;2.83;;;;;;;20.34;75.50;100607.78;5019709;28;20226;-49
2023/07/16 06:57:49;;;;;;;6.70;2.83;;;;;;;20.49;75.16;100618.41;5016367;28;20185;-51
2023/07/16 07:00:15;;;;;;;9.48;2.80;;;;;;;20.83;73.57;100604.69;5018960;28;20191;-52
2023/07/16 07:02:41;;;;;;;5.82;2.63;;;;;;;20.97;72.62;100604.38;5016669;28;20180;-52
2023/07/16 07:05:07;;;;;;;4.35;2.88;;;;;;;21.17;71.75;100599.94;5016619;28;20195;-52
2023/07/16 07:07:33;;;;;;;8.85;2.83;;;;;;;20.93;70.98;100603.78;5016010;28;20187;-52
2023/07/16 07:09:59;;;;;;;7.43;2.78;;;;;;;21.46;70.04;100612.94;5018461;28;20168;-52
2023/07/16 07:12:24;;;;;;;5.18;2.60;;;;;;;21.06;70.34;100609.03;5017826;28;20223;-48
2023/07/16 07:14:50;;;;;;;7.03;2.50;;;;;;;21.36;68.81;100600.06;5018084;28;20323;-52
2023/07/16 07:17:15;;;;;;;6.78;3.58;;;;;;;21.32;67.50;100597.75;5017710;28;20267;-52
2023/07/16 07:19:41;;;;;;;6.55;3.13;;;;;;;21.46;67.84;100612.94;5013509;28;20179;-50
2023/07/16 07:22:07;;;;;;;8.38;3.38;;;;;;;21.26;67.19;100623.66;5020468;28;20616;-52
2023/07/16 07:24:33;;;;;;;6.30;2.90;;;;;;;21.46;67.24;100612.94;5017129;28;20177;-51
2023/07/16 07:26:58;;;;;;;5.88;3.25;;;;;;;21.20;67.24;100627.78;5015499;28;20218;-53
2023/07/16 07:29:24;;;;;;;5.93;3.00;;;;;;;21.17;67.67;100614.44;5019932;28;20275;-51
2023/07/16 07:31:50;;;;;;;8.85;2.90;;;;;;;20.86;67.97;100612.59;5014674;28;20246;-50
2023/07/16 07:34:16;;;;;;;6.72;2.45;;;;;;;21.32;67.10;100625.00;5013938;28;20196;-49
2023/07/16 07:36:43;;;;;;;5.22;2.58;;;;;;;21.55;66.75;100628.47;5014520;28;20223;-52
2023/07/16 07:39:08;;;;;;;6.65;2.53;;;;;;;21.55;65.56;100610.25;5016077;28;20180;-50
2023/07/16 07:41:34;;;;;;;6.95;2.60;;;;;;;21.62;65.13;100616.00;5019479;28;20195;-49
2023/07/16 07:44:00;;;;;;;8.93;2.83;;;;;;;22.00;64.82;100611.75;5011425;28;20191;-52
2023/07/16 07:46:25;;;;;;;6.88;3.40;;;;;;;21.61;64.16;100608.84;5021534;28;20293;-51
2023/07/16 07:48:51;;;;;;;6.82;3.05;;;;;;;21.74;63.06;100605.91;5028551;28;20195;-50
2023/07/16 07:51:17;;;;;;;6.05;3.00;;;;;;;21.34;62.91;100598.47;5018098;28;20321;-52
2023/07/16 07:53:43;;;;;;;5.05;2.90;;;;;;;21.68;63.47;100601.00;5015276;28;20196;-49
2023/07/16 07:56:08;;;;;;;10.13;3.50;;;;;;;21.68;62.99;100614.63;5014502;28;20212;-49
2023/07/16 07:58:34;;;;;;;6.53;3.65;;;;;;;21.70;62.13;100629.00;5010150;28;20180;-51
2023/07/16 08:01:05;;;;;;;8.57;3.28;;;;;;;21.38;62.12;100600.81;5019801;28;20287;-53
2023/07/16 08:03:30;;;;;;;6.97;3.38;;;;;;;21.69;61.78;100630.84;5011750;28;20200;-52
2023/07/16 08:05:56;;;;;;;8.32;3.20;;;;;;;21.72;60.28;100597.84;5019379;28;20235;-47
2023/07/16 08:08:22;;;;;;;6.20;3.42;;;;;;;21.91;60.90;100604.38;5020124;28;20228;-50
2023/07/16 08:10:47;;;;;;;7.60;3.42;;;;;;;22.09;60.09;100602.72;5034882;28;20193;-52
2023/07/16 08:13:13;;;;;;;5.97;3.30;;;;;;;22.28;60.69;100612.00;5020389;28;21080;-51
2023/07/16 08:15:39;;;;;;;5.10;3.30;;;;;;;22.30;60.41;100608.16;5020795;28;20779;-50
2023/07/16 08:18:04;;;;;;;6.55;3.40;;;;;;;22.30;59.98;100616.34;5010273;28;20640;-53
2023/07/16 08:20:30;;;;;;;6.07;3.08;;;;;;;22.43;59.68;100610.59;5011407;28;20191;-51
2023/07/16 08:22:56;;;;;;;4.10;3.17;;;;;;;22.41;59.55;100624.41;5017911;28;20168;-51
2023/07/16 08:25:22;;;;;;;5.22;3.22;;;;;;;23.03;58.88;100603.19;5015400;28;20204;-50
2023/07/16 08:27:47;;;;;;;6.32;3.38;;;;;;;23.04;57.91;100602.19;5014755;28;20191;-50
2023/07/16 08:30:13;;;;;;;13.85;3.78;;;;;;;23.31;58.64;100611.53;5018833;28;20176;-51
2023/07/16 08:32:39;;;;;;;6.35;3.20;;;;;;;23.53;57.62;100599.38;5018879;28;20529;-50
2023/07/16 08:35:05;;;;;;;6.97;3.42;;;;;;;23.16;56.20;100589.25;5013581;28;20200;-51
2023/07/16 08:37:31;;;;;;;6.15;3.25;;;;;;;23.18;55.81;100589.97;5021674;28;20231;-51
2023/07/16 08:39:57;;;;;;;6.50;3.22;;;;;;;23.20;56.56;100598.03;5018324;28;20192;-51
2023/07/16 08:42:23;;;;;;;6.72;3.05;;;;;;;22.19;56.97;100592.72;5011914;28;20447;-50
2023/07/16 08:44:52;;;;;;;6.65;3.10;;;;;;;22.06;58.07;100608.44;5013762;28;20200;-52
2023/07/16 08:47:18;;;;;;;7.88;3.13;;;;;;;21.71;58.61;100614.34;5013169;28;20189;-52
2023/07/16 08:49:55;;;;;;;12.05;3.22;;;;;;;22.05;57.84;100609.47;5015552;28;20208;-52
2023/07/16 08:52:21;;;;;;;5.18;2.83;;;;;;;21.92;56.84;100592.47;5016128;28;20181;-50
2023/07/16 08:54:47;;;;;;;6.63;3.35;;;;;;;22.27;57.11;100596.66;5012003;28;20682;-50
2023/07/16 08:57:14;;;;;;;6.35;3.42;;;;;;;22.57;57.11;100609.34;5015250;28;20248;-50
2023/07/16 08:59:40;;;;;;;9.65;3.38;;;;;;;21.89;58.50;100614.59;5013301;28;20696;-51
2023/07/16 09:02:06;;;;;;;6.68;3.47;;;;;;;22.81;58.44;100617.97;5013250;28;20191;-51
2023/07/16 09:04:32;;;;;;;9.82;3.30;;;;;;;22.70;57.90;100607.19;5016682;28;20228;-50
2023/07/16 09:06:58;;;;;;;5.75;3.03;;;;;;;22.39;58.18;100629.16;5008482;28;20300;-52
2023/07/16 09:09:24;;;;;;;8.68;3.03;;;;;;;21.97;57.90;100609.28;5014739;28;20261;-49
2023/07/16 09:11:50;;;;;;;7.95;3.00;;;;;;;21.81;58.53;100626.16;5016054;28;20787;-51
2023/07/16 09:14:21;;;;;;;8.88;3.20;;;;;;;22.12;58.33;100609.78;5003480;28;20275;-51
2023/07/16 09:16:53;;;;;;;9.15;3.05;;;;;;;22.12;58.92;100624.28;5009765;28;20213;-50
2023/07/16 09:19:19;;;;;;;6.25;2.58;;;;;;;22.79;58.75;100625.47;5012957;28;20241;-50
2023/07/16 09:21:51;;;;;;;6.22;2.65;;;;;;;22.77;58.05;100632.06;5011418;28;20196;-51
2023/07/16 09:24:19;;;;;;;6.03;2.97;;;;;;;22.51;58.30;100629.03;5019989;28;20181;-49
2023/07/16 09:26:53;;;;;;;8.07;3.25;;;;;;;22.53;58.35;100632.47;5018447;28;20219;-51
2023/07/16 09:29:20;;;;;;;6.75;3.08;;;;;;;22.21;58.36;100633.50;5012305;28;20191;-50
2023/07/16 09:32:07;;;;;;;4.95;2.55;;;;;;;22.11;58.81;100652.56;5011002;28;20192;-52
2023/07/16 09:34:33;;;;;;;6.10;2.70;;;;;;;22.13;58.46;100652.44;5016910;28;20208;-51
2023/07/16 09:37:01;;;;;;;3.83;2.65;;;;;;;21.81;58.36;100648.84;5014078;28;20189;-51
2023/07/16 09:39:27;;;;;;;6.05;2.75;;;;;;;22.40;58.08;100647.22;5019222;28;20197;-50
2023/07/16 09:41:56;;;;;;;6.78;3.30;;;;;;;22.44;57.05;100645.09;5013906;28;20655;-49
2023/07/16 09:44:22;;;;;;;5.15;2.83;;;;;;;21.71;58.11;100650.69;5021232;28;20185;-50
2023/07/16 09:46:47;;;;;;;5.70;2.88;;;;;;;21.31;59.56;100664.16;5017509;28;20197;-51
2023/07/16 09:49:15;;;;;;;5.30;2.65;;;;;;;21.27;60.49;100671.72;5008814;28;20199;-50
2023/07/16 09:51:42;;;;;;;5.68;2.40;;;;;;;21.31;61.18;100688.66;5015348;28;20190;-51
2023/07/16 09:54:12;;;;;;;4.30;2.55;;;;;;;21.64;60.63;100682.19;5016652;28;20196;-50
2023/07/16 09:56:48;;;;;;;4.47;2.70;;;;;;;21.74;60.61;100676.81;5011218;28;20195;-52
2023/07/16 09:59:22;;;;;;;6.43;2.97;;;;;;;21.71;60.69;100697.03;5008495;28;20243;-51
2023/07/16 10:01:48;;;;;;;9.57;2.90;;;;;;;22.49;60.26;100685.63;5016414;28;20199;-50
2023/07/16 10:04:18;;;;;;;5.15;2.70;;;;;;;22.94;59.33;100683.28;4989031;28;20227;-51
2023/07/16 10:07:21;;;;;;;5.97;2.28;;;;;;;23.32;57.31;100667.91;5008334;28;20200;-50
2023/07/16 10:09:56;;;;;;;6.25;2.67;;;;;;;23.11;56.57;100654.41;5012713;28;20212;-51
2023/07/16 10:12:24;;;;;;;5.38;2.30;;;;;;;22.24;56.97;100651.47;5017627;28;20185;-52
2023/07/16 10:14:58;;;;;;;4.50;2.35;;;;;;;22.16;57.41;100657.63;5014213;28;20217;-50
2023/07/16 10:17:26;;;;;;;7.80;2.53;;;;;;;21.78;58.68;100687.31;5017304;28;20211;-51
2023/07/16 10:19:57;;;;;;;5.45;2.35;;;;;;;21.62;59.29;100683.31;5015022;28;20235;-51
2023/07/16 10:22:42;;;;;;;4.90;2.25;;;;;;;22.57;59.25;100691.25;5026628;28;20184;-51
2023/07/16 10:25:21;;;;;;;4.60;2.25;;;;;;;22.72;58.14;100688.97;5014662;28;20233;-51
2023/07/16 10:27:48;;;;;;;9.50;2.20;;;;;;;22.92;56.79;100670.78;5008312;28;20179;-49
2023/07/16 10:30:15;;;;;;;5.45;1.75;;;;;;;22.81;56.54;100671.75;5026423;28;20259;-50
2023/07/16 10:32:42;;;;;;;3.10;1.85;;;;;;;23.22;55.90;100672.50;5015214;28;20184;-49
2023/07/16 10:35:08;;;;;;;5.45;1.98;;;;;;;23.61;54.71;100670.63;5015725;28;20243;-50
2023/07/16 10:37:35;;;;;;;4.30;1.85;;;;;;;23.31;54.09;100658.00;5015218;28;20188;-52
2023/07/16 10:40:06;;;;;;;9.65;2.03;;;;;;;23.48;54.56;100670.03;5013003;28;20185;-49
2023/07/16 10:42:32;;;;;;;4.18;2.28;;;;;;;23.79;54.04;100670.75;5019001;28;20202;-51
2023/07/16 10:45:00;;;;;;;4.10;1.75;;;;;;;23.84;53.82;100681.25;5012994;28;20207;-48
2023/07/16 10:47:34;;;;;;;3.63;2.10;;;;;;;23.78;52.88;100663.53;5013800;28;20215;-51
2023/07/16 10:50:03;;;;;;;3.55;1.85;;;;;;;23.40;53.12;100659.00;5012003;28;20261;-51
2023/07/16 10:52:29;;;;;;;4.80;2.10;;;;;;;23.66;53.04;100689.31;5013141;28;20241;-50
2023/07/16 10:54:55;;;;;;;4.30;1.95;;;;;;;23.38;52.60;100664.59;5015145;28;20278;-51
2023/07/16 10:57:21;;;;;;;3.83;1.95;;;;;;;23.63;52.98;100667.72;5005321;28;20223;-50
2023/07/16 10:59:49;;;;;;;6.65;1.90;;;;;;;23.62;52.25;100679.69;5002982;28;20169;-49
2023/07/16 11:02:16;;;;;;;4.60;1.65;;;;;;;23.13;52.77;100663.31;5012198;23;20249;-46
2023/07/16 11:04:44;;;;;;;2.13;1.55;;;;;;;22.77;53.86;100683.97;4978016;28;20190;-47
2023/07/16 11:07:11;;;;;;;1.90;1.70;;;;;;;22.45;54.86;100695.09;4982993;28;20599;-46
2023/07/16 11:09:45;;;;;;;6.43;2.00;;;;;;;22.34;55.27;100716.03;4980140;28;20185;-46
2023/07/16 11:12:13;;;;;;;4.90;2.00;;;;;;;21.65;55.36;100711.19;4978483;28;20560;-46
2023/07/16 11:14:43;;;;;;;4.18;1.77;;;;;;;21.40;56.61;100739.66;4977141;28;20702;-46
2023/07/16 11:17:10;;;;;;;2.40;1.90;;;;;;;21.74;56.31;100742.25;4978101;28;20360;-46
2023/07/16 11:19:37;;;;;;;4.38;1.80;;;;;;;22.76;55.49;100735.00;4978657;28;20181;-46